createdAt,value
2018-04-17T00:00:12.637Z,0
2018-04-17T00:01:13.363Z,0
2018-04-17T00:02:14.112Z,0
2018-04-17T00:03:14.841Z,0
2018-04-17T00:04:15.592Z,0
2018-04-17T00:05:16.385Z,0
2018-04-17T00:06:17.114Z,0
2018-04-17T00:07:17.931Z,0
2018-04-17T00:08:19.052Z,0
2018-04-17T00:09:19.783Z,0
2018-04-17T00:10:20.540Z,0
2018-04-17T00:11:21.313Z,0
2018-04-17T00:12:22.071Z,0
2018-04-17T00:13:22.860Z,0
2018-04-17T00:14:23.691Z,0
2018-04-17T00:15:24.425Z,0
2018-04-17T00:16:25.225Z,0
2018-04-17T00:17:25.965Z,0
2018-04-17T00:18:26.701Z,0
2018-04-17T00:19:27.433Z,0
2018-04-17T00:20:28.166Z,0
2018-04-17T00:21:28.898Z,0
2018-04-17T00:22:29.638Z,0
2018-04-17T00:23:30.737Z,0
2018-04-17T00:24:31.499Z,0
2018-04-17T00:25:32.235Z,0
2018-04-17T00:26:33.036Z,0
2018-04-17T00:27:33.839Z,0
2018-04-17T00:28:34.564Z,0
2018-04-17T00:29:35.393Z,0
2018-04-17T00:30:36.170Z,0
2018-04-17T00:31:36.899Z,0
2018-04-17T00:32:37.643Z,0
2018-04-17T00:33:38.437Z,0
2018-04-17T00:34:39.165Z,0
2018-04-17T00:35:40.014Z,0
2018-04-17T00:36:40.814Z,0
2018-04-17T00:37:41.636Z,0
2018-04-17T00:38:42.374Z,0
2018-04-17T00:39:43.083Z,0
2018-04-17T00:40:43.839Z,0
2018-04-17T00:41:44.580Z,0
2018-04-17T00:42:45.332Z,0
2018-04-17T00:43:46.127Z,0
2018-04-17T00:44:46.867Z,0
2018-04-17T00:45:47.615Z,0
2018-04-17T00:46:48.360Z,0
2018-04-17T00:47:49.111Z,0
2018-04-17T00:48:49.868Z,0
2018-04-17T00:49:50.680Z,0
2018-04-17T00:50:51.419Z,0
2018-04-17T00:51:52.152Z,0
2018-04-17T00:52:52.976Z,0
2018-04-17T00:53:53.690Z,0
2018-04-17T00:54:54.417Z,0
2018-04-17T00:55:55.158Z,0
2018-04-17T00:56:55.975Z,0
2018-04-17T00:57:56.718Z,0
2018-04-17T00:58:57.557Z,0
2018-04-17T00:59:58.293Z,0
2018-04-17T01:00:59.028Z,0
2018-04-17T01:01:59.768Z,0
2018-04-17T01:03:00.508Z,0
2018-04-17T01:04:01.561Z,0
2018-04-17T01:05:02.298Z,0
2018-04-17T01:06:03.059Z,0
2018-04-17T01:07:03.796Z,0
2018-04-17T01:08:04.563Z,0
2018-04-17T01:09:05.294Z,0
2018-04-17T01:10:06.451Z,0
2018-04-17T01:11:07.192Z,0
2018-04-17T01:12:07.902Z,0
2018-04-17T01:13:08.663Z,0
2018-04-17T01:14:09.472Z,0
2018-04-17T01:15:10.212Z,0
2018-04-17T01:16:10.943Z,0
2018-04-17T01:17:11.675Z,0
2018-04-17T01:18:12.401Z,0
2018-04-17T01:19:13.148Z,0
2018-04-17T01:20:13.927Z,0
2018-04-17T01:21:14.661Z,0
2018-04-17T01:22:15.396Z,0
2018-04-17T01:23:16.152Z,0
2018-04-17T01:24:16.934Z,0
2018-04-17T01:25:17.685Z,0
2018-04-17T01:26:18.421Z,0
2018-04-17T01:27:19.202Z,0
2018-04-17T01:28:20.016Z,0
2018-04-17T01:29:20.756Z,0
2018-04-17T01:30:21.541Z,0
2018-04-17T01:31:22.259Z,0
2018-04-17T01:32:23.176Z,0
2018-04-17T01:33:23.907Z,0
2018-04-17T01:34:24.622Z,0
2018-04-17T01:35:25.379Z,0
2018-04-17T01:36:26.098Z,0
2018-04-17T01:37:26.839Z,0
2018-04-17T01:38:27.695Z,0
2018-04-17T01:39:28.520Z,0
2018-04-17T01:40:29.345Z,0
2018-04-17T01:41:30.077Z,0
2018-04-17T01:42:30.899Z,0
2018-04-17T01:43:31.772Z,0
2018-04-17T01:44:32.568Z,0
2018-04-17T01:45:33.383Z,0
2018-04-17T01:46:34.185Z,0
2018-04-17T01:47:35.001Z,0
2018-04-17T01:48:35.794Z,0
2018-04-17T01:49:36.520Z,0
2018-04-17T01:50:37.261Z,0
2018-04-17T01:51:37.988Z,0
2018-04-17T01:52:38.732Z,0
2018-04-17T01:53:39.530Z,0
2018-04-17T01:54:40.270Z,0
2018-04-17T01:55:41.009Z,0
2018-04-17T01:56:41.753Z,0
2018-04-17T01:57:42.568Z,0
2018-04-17T01:58:43.297Z,0
2018-04-17T01:59:44.005Z,0
2018-04-17T02:00:44.820Z,0
2018-04-17T02:01:45.615Z,0
2018-04-17T02:02:46.420Z,0
2018-04-17T02:03:47.163Z,0
2018-04-17T02:04:47.902Z,0
2018-04-17T02:05:48.630Z,0
2018-04-17T02:06:49.413Z,0
2018-04-17T02:07:50.235Z,0
2018-04-17T02:08:50.977Z,0
2018-04-17T02:09:51.742Z,0
2018-04-17T02:10:52.554Z,0
2018-04-17T02:11:53.289Z,0
2018-04-17T02:12:54.081Z,0
2018-04-17T02:13:54.883Z,0
2018-04-17T02:14:55.606Z,0
2018-04-17T02:15:56.329Z,0
2018-04-17T02:16:57.074Z,0
2018-04-17T02:17:57.916Z,0
2018-04-17T02:18:58.649Z,0
2018-04-17T02:19:59.465Z,0
2018-04-17T02:21:00.277Z,0
2018-04-17T02:22:01.028Z,0
2018-04-17T02:23:01.936Z,0
2018-04-17T02:24:02.729Z,0
2018-04-17T02:25:03.535Z,0
2018-04-17T02:26:04.293Z,0
2018-04-17T02:27:05.102Z,0
2018-04-17T02:28:05.915Z,0
2018-04-17T02:29:06.650Z,0
2018-04-17T02:30:07.402Z,0
2018-04-17T02:31:08.221Z,0
2018-04-17T02:32:08.961Z,0
2018-04-17T02:33:09.688Z,0
2018-04-17T02:34:10.792Z,0
2018-04-17T02:35:11.527Z,0
2018-04-17T02:36:12.345Z,0
2018-04-17T02:37:13.072Z,0
2018-04-17T02:38:13.861Z,0
2018-04-17T02:39:14.605Z,0
2018-04-17T02:40:15.342Z,0
2018-04-17T02:41:16.070Z,0
2018-04-17T02:42:16.835Z,0
2018-04-17T02:43:17.634Z,0
2018-04-17T02:44:18.378Z,0
2018-04-17T02:45:19.187Z,0
2018-04-17T02:46:19.995Z,0
2018-04-17T02:47:20.717Z,0
2018-04-17T02:48:21.483Z,0
2018-04-17T02:49:22.215Z,0
2018-04-17T02:50:22.945Z,0
2018-04-17T02:51:23.689Z,0
2018-04-17T02:52:24.524Z,0
2018-04-17T02:53:25.293Z,0
2018-04-17T02:54:26.107Z,0
2018-04-17T02:55:26.856Z,0
2018-04-17T02:56:27.678Z,0
2018-04-17T02:57:28.507Z,0
2018-04-17T02:58:29.238Z,0
2018-04-17T02:59:30.037Z,0
2018-04-17T03:00:30.843Z,0
2018-04-17T03:01:31.585Z,0
2018-04-17T03:02:32.383Z,0
2018-04-17T03:03:33.105Z,0
2018-04-17T03:04:33.834Z,0
2018-04-17T03:05:34.569Z,0
2018-04-17T03:06:35.294Z,0
2018-04-17T03:07:36.033Z,0
2018-04-17T03:08:36.885Z,0
2018-04-17T03:09:37.701Z,0
2018-04-17T03:10:38.517Z,0
2018-04-17T03:11:39.252Z,0
2018-04-17T03:12:40.077Z,0
2018-04-17T03:13:40.831Z,0
2018-04-17T03:14:41.532Z,0
2018-04-17T03:15:42.405Z,0
2018-04-17T03:16:43.266Z,0
2018-04-17T03:17:44.062Z,0
2018-04-17T03:18:44.873Z,0
2018-04-17T03:19:45.630Z,0
2018-04-17T03:20:46.706Z,0
2018-04-17T03:21:47.450Z,0
2018-04-17T03:22:48.197Z,0
2018-04-17T03:23:48.976Z,0
2018-04-17T03:24:49.712Z,0
2018-04-17T03:25:50.507Z,0
2018-04-17T03:26:51.192Z,0
2018-04-17T03:27:51.942Z,0
2018-04-17T03:28:52.668Z,0
2018-04-17T03:29:53.430Z,0
2018-04-17T03:30:54.251Z,0
2018-04-17T03:31:54.991Z,0
2018-04-17T03:32:55.712Z,0
2018-04-17T03:33:56.451Z,0
2018-04-17T03:34:57.270Z,0
2018-04-17T03:35:58.001Z,0
2018-04-17T03:36:58.810Z,0
2018-04-17T03:37:59.649Z,0
2018-04-17T03:39:00.413Z,0
2018-04-17T03:40:01.196Z,0
2018-04-17T03:41:01.922Z,0
2018-04-17T03:42:02.743Z,0
2018-04-17T03:43:03.534Z,0
2018-04-17T03:44:04.651Z,0
2018-04-17T03:45:05.392Z,0
2018-04-17T03:46:06.114Z,0
2018-04-17T03:47:06.922Z,0
2018-04-17T03:48:07.667Z,0
2018-04-17T03:49:08.410Z,0
2018-04-17T03:50:09.146Z,0
2018-04-17T03:51:10.187Z,0
2018-04-17T03:52:10.921Z,0
2018-04-17T03:53:11.657Z,0
2018-04-17T03:54:12.456Z,0
2018-04-17T03:55:13.237Z,0
2018-04-17T03:56:14.073Z,0
2018-04-17T03:57:14.870Z,0
2018-04-17T03:58:15.681Z,0
2018-04-17T03:59:16.414Z,0
2018-04-17T04:00:17.154Z,0
2018-04-17T04:01:17.885Z,0
2018-04-17T04:02:18.612Z,0
2018-04-17T04:03:19.515Z,0
2018-04-17T04:04:20.245Z,0
2018-04-17T04:05:20.977Z,0
2018-04-17T04:06:21.706Z,0
2018-04-17T04:07:22.450Z,0
2018-04-17T04:08:23.277Z,0
2018-04-17T04:09:24.015Z,0
2018-04-17T04:10:24.755Z,0
2018-04-17T04:11:25.504Z,0
2018-04-17T04:12:26.252Z,0
2018-04-17T04:13:27.055Z,0
2018-04-17T04:14:27.817Z,5
2018-04-17T04:15:28.595Z,5
2018-04-17T04:16:29.328Z,5
2018-04-17T04:17:30.144Z,5
2018-04-17T04:18:30.874Z,5
2018-04-17T04:19:31.627Z,5
2018-04-17T04:20:32.347Z,11
2018-04-17T04:21:33.062Z,11
2018-04-17T04:22:33.810Z,11
2018-04-17T04:23:34.549Z,11
2018-04-17T04:24:35.300Z,16
2018-04-17T04:25:36.037Z,16
2018-04-17T04:26:36.770Z,16
2018-04-17T04:27:37.560Z,16
2018-04-17T04:28:38.302Z,22
2018-04-17T04:29:39.094Z,22
2018-04-17T04:30:39.845Z,28
2018-04-17T04:31:40.598Z,28
2018-04-17T04:32:41.728Z,28
2018-04-17T04:33:42.469Z,28
2018-04-17T04:34:43.212Z,33
2018-04-17T04:35:43.953Z,33
2018-04-17T04:36:44.728Z,33
2018-04-17T04:37:45.464Z,39
2018-04-17T04:38:46.226Z,39
2018-04-17T04:39:47.032Z,39
2018-04-17T04:40:47.758Z,45
2018-04-17T04:41:48.493Z,45
2018-04-17T04:42:49.258Z,50
2018-04-17T04:43:50.034Z,50
2018-04-17T04:44:50.879Z,56
2018-04-17T04:45:51.683Z,56
2018-04-17T04:46:52.437Z,61
2018-04-17T04:47:53.220Z,61
2018-04-17T04:48:54.031Z,61
2018-04-17T04:49:55.144Z,67
2018-04-17T04:50:55.963Z,67
2018-04-17T04:51:56.704Z,73
2018-04-17T04:52:57.463Z,73
2018-04-17T04:53:58.206Z,78
2018-04-17T04:54:58.997Z,78
2018-04-17T04:55:59.735Z,84
2018-04-17T04:57:00.477Z,84
2018-04-17T04:58:01.292Z,90
2018-04-17T04:59:02.040Z,90
2018-04-17T05:00:02.767Z,95
2018-04-17T05:01:03.584Z,101
2018-04-17T05:02:04.340Z,101
2018-04-17T05:03:05.074Z,106
2018-04-17T05:04:05.822Z,112
2018-04-17T05:05:06.559Z,112
2018-04-17T05:06:07.290Z,118
2018-04-17T05:07:08.025Z,118
2018-04-17T05:08:09.218Z,123
2018-04-17T05:09:09.965Z,123
2018-04-17T05:10:10.777Z,129
2018-04-17T05:11:11.559Z,135
2018-04-17T05:12:12.292Z,140
2018-04-17T05:13:13.033Z,140
2018-04-17T05:14:13.766Z,146
2018-04-17T05:15:14.543Z,151
2018-04-17T05:16:15.265Z,151
2018-04-17T05:17:16.017Z,157
2018-04-17T05:18:17.150Z,168
2018-04-17T05:19:17.966Z,174
2018-04-17T05:20:18.695Z,180
2018-04-17T05:21:19.443Z,180
2018-04-17T05:22:20.184Z,185
2018-04-17T05:23:20.936Z,191
2018-04-17T05:24:21.665Z,191
2018-04-17T05:25:22.496Z,191
2018-04-17T05:26:23.252Z,196
2018-04-17T05:27:24.063Z,208
2018-04-17T05:28:24.805Z,208
2018-04-17T05:29:25.552Z,208
2018-04-17T05:30:26.385Z,219
2018-04-17T05:31:27.125Z,225
2018-04-17T05:32:27.876Z,230
2018-04-17T05:33:28.691Z,236
2018-04-17T05:34:29.442Z,241
2018-04-17T05:35:30.275Z,241
2018-04-17T05:36:31.087Z,247
2018-04-17T05:37:31.923Z,247
2018-04-17T05:38:32.732Z,253
2018-04-17T05:39:33.480Z,258
2018-04-17T05:40:34.239Z,264
2018-04-17T05:41:35.020Z,270
2018-04-17T05:42:35.947Z,275
2018-04-17T05:43:36.692Z,286
2018-04-17T05:44:37.501Z,281
2018-04-17T05:45:38.247Z,292
2018-04-17T05:46:38.994Z,298
2018-04-17T05:47:39.800Z,292
2018-04-17T05:48:40.657Z,303
2018-04-17T05:49:41.408Z,315
2018-04-17T05:50:42.215Z,326
2018-04-17T05:51:42.970Z,326
2018-04-17T05:52:43.728Z,331
2018-04-17T05:53:44.620Z,331
2018-04-17T05:54:45.437Z,348
2018-04-17T05:55:46.217Z,360
2018-04-17T05:56:46.934Z,365
2018-04-17T05:57:47.655Z,371
2018-04-17T05:58:48.403Z,388
2018-04-17T05:59:49.149Z,376
2018-04-17T06:00:49.895Z,393
2018-04-17T06:01:50.724Z,399
2018-04-17T06:02:51.457Z,410
2018-04-17T06:03:52.269Z,410
2018-04-17T06:04:53.021Z,399
2018-04-17T06:05:53.849Z,410
2018-04-17T06:06:54.599Z,427
2018-04-17T06:07:55.433Z,427
2018-04-17T06:08:56.179Z,433
2018-04-17T06:09:56.955Z,433
2018-04-17T06:10:57.714Z,450
2018-04-17T06:11:58.467Z,444
2018-04-17T06:12:59.223Z,438
2018-04-17T06:13:59.964Z,433
2018-04-17T06:15:00.722Z,410
2018-04-17T06:16:01.491Z,410
2018-04-17T06:17:02.236Z,416
2018-04-17T06:18:02.973Z,427
2018-04-17T06:19:03.736Z,455
2018-04-17T06:20:04.605Z,450
2018-04-17T06:21:05.430Z,455
2018-04-17T06:22:06.176Z,511
2018-04-17T06:23:06.918Z,545
2018-04-17T06:24:07.703Z,495
2018-04-17T06:25:08.552Z,489
2018-04-17T06:26:09.283Z,472
2018-04-17T06:27:09.985Z,506
2018-04-17T06:28:10.804Z,534
2018-04-17T06:29:11.550Z,511
2018-04-17T06:30:12.281Z,483
2018-04-17T06:31:13.128Z,483
2018-04-17T06:32:13.867Z,495
2018-04-17T06:33:14.620Z,495
2018-04-17T06:34:15.374Z,472
2018-04-17T06:35:16.200Z,478
2018-04-17T06:36:16.930Z,472
2018-04-17T06:37:17.677Z,495
2018-04-17T06:38:18.492Z,495
2018-04-17T06:39:19.231Z,483
2018-04-17T06:40:19.998Z,472
2018-04-17T06:41:20.795Z,478
2018-04-17T06:42:21.569Z,472
2018-04-17T06:43:22.316Z,478
2018-04-17T06:44:23.063Z,483
2018-04-17T06:45:23.825Z,472
2018-04-17T06:46:24.657Z,478
2018-04-17T06:47:25.541Z,483
2018-04-17T06:48:26.223Z,489
2018-04-17T06:49:26.970Z,506
2018-04-17T06:50:27.731Z,517
2018-04-17T06:51:28.516Z,500
2018-04-17T06:52:29.246Z,478
2018-04-17T06:53:30.048Z,500
2018-04-17T06:54:30.867Z,511
2018-04-17T06:55:31.604Z,540
2018-04-17T06:56:32.363Z,511
2018-04-17T06:57:33.148Z,556
2018-04-17T06:58:34.009Z,483
2018-04-17T06:59:34.793Z,489
2018-04-17T07:00:35.553Z,489
2018-04-17T07:01:36.389Z,495
2018-04-17T07:02:37.186Z,534
2018-04-17T07:03:38.011Z,562
2018-04-17T07:04:38.759Z,511
2018-04-17T07:05:39.581Z,517
2018-04-17T07:06:40.410Z,607
2018-04-17T07:07:41.507Z,590
2018-04-17T07:08:42.264Z,534
2018-04-17T07:09:43.061Z,540
2018-04-17T07:10:43.868Z,568
2018-04-17T07:11:44.710Z,568
2018-04-17T07:12:45.892Z,596
2018-04-17T07:13:46.711Z,545
2018-04-17T07:14:47.432Z,534
2018-04-17T07:15:48.253Z,540
2018-04-17T07:16:48.981Z,545
2018-04-17T07:17:49.795Z,551
2018-04-17T07:18:50.818Z,573
2018-04-17T07:19:51.509Z,568
2018-04-17T07:20:52.350Z,556
2018-04-17T07:21:53.404Z,573
2018-04-17T07:22:54.239Z,596
2018-04-17T07:23:55.406Z,635
2018-04-17T07:24:56.331Z,635
2018-04-17T07:25:57.406Z,590
2018-04-17T07:26:58.218Z,590
2018-04-17T07:27:59.047Z,669
2018-04-17T07:28:59.970Z,663
2018-04-17T07:30:00.714Z,590
2018-04-17T07:31:01.468Z,635
2018-04-17T07:32:02.214Z,663
2018-04-17T07:33:02.979Z,618
2018-04-17T07:34:03.879Z,618
2018-04-17T07:35:04.654Z,613
2018-04-17T07:36:05.432Z,967
2018-04-17T07:37:06.183Z,1018
2018-04-17T07:38:07.257Z,911
2018-04-17T07:39:08.065Z,736
2018-04-17T07:40:08.814Z,793
2018-04-17T07:41:09.568Z,815
2018-04-17T07:42:10.316Z,821
2018-04-17T07:43:11.055Z,776
2018-04-17T07:44:11.784Z,855
2018-04-17T07:45:12.533Z,978
2018-04-17T07:46:13.279Z,714
2018-04-17T07:47:14.021Z,686
2018-04-17T07:48:14.833Z,900
2018-04-17T07:49:15.753Z,995
2018-04-17T07:50:16.606Z,1113
2018-04-17T07:51:17.375Z,1108
2018-04-17T07:52:18.177Z,1119
2018-04-17T07:53:18.927Z,1018
2018-04-17T07:54:19.675Z,1136
2018-04-17T07:55:20.418Z,1023
2018-04-17T07:56:21.173Z,877
2018-04-17T07:57:21.951Z,945
2018-04-17T07:58:22.686Z,1113
2018-04-17T07:59:23.444Z,1046
2018-04-17T08:00:24.196Z,1260
2018-04-17T08:01:24.996Z,1276
2018-04-17T08:02:25.818Z,1282
2018-04-17T08:03:26.680Z,1316
2018-04-17T08:04:27.434Z,1333
2018-04-17T08:05:28.177Z,1378
2018-04-17T08:06:28.985Z,1434
2018-04-17T08:07:29.718Z,1546
2018-04-17T08:08:30.561Z,1676
2018-04-17T08:09:31.704Z,1687
2018-04-17T08:10:32.564Z,1951
2018-04-17T08:11:33.321Z,2036
2018-04-17T08:12:34.493Z,2103
2018-04-17T08:13:35.460Z,2092
2018-04-17T08:14:36.636Z,2098
2018-04-17T08:15:37.472Z,1906
2018-04-17T08:16:38.220Z,2047
2018-04-17T08:17:39.071Z,2008
2018-04-17T08:18:40.166Z,1968
2018-04-17T08:19:41.607Z,1963
2018-04-17T08:20:42.804Z,1957
2018-04-17T08:21:44.254Z,1980
2018-04-17T08:22:45.866Z,1929
2018-04-17T08:23:46.986Z,1951
2018-04-17T08:24:47.743Z,1918
2018-04-17T08:25:48.504Z,1895
2018-04-17T08:26:49.262Z,1901
2018-04-17T08:27:50.060Z,1929
2018-04-17T08:28:50.819Z,1957
2018-04-17T08:29:51.608Z,2086
2018-04-17T08:30:52.382Z,2171
2018-04-17T08:31:53.121Z,2244
2018-04-17T08:32:53.933Z,2244
2018-04-17T08:33:54.678Z,2328
2018-04-17T08:34:55.497Z,2306
2018-04-17T08:35:56.234Z,2356
2018-04-17T08:36:57.079Z,2452
2018-04-17T08:37:57.885Z,2362
2018-04-17T08:38:58.741Z,2475
2018-04-17T08:39:59.487Z,2401
2018-04-17T08:41:00.248Z,2401
2018-04-17T08:42:01.085Z,2446
2018-04-17T08:43:01.829Z,2345
2018-04-17T08:44:02.574Z,2306
2018-04-17T08:45:03.344Z,2356
2018-04-17T08:46:04.152Z,2536
2018-04-17T08:47:04.979Z,2508
2018-04-17T08:48:05.724Z,2514
2018-04-17T08:49:06.477Z,2475
2018-04-17T08:50:07.278Z,2463
2018-04-17T08:51:08.023Z,2340
2018-04-17T08:52:08.767Z,2278
2018-04-17T08:53:09.520Z,2531
2018-04-17T08:54:10.335Z,2553
2018-04-17T08:55:11.085Z,2671
2018-04-17T08:56:11.941Z,2666
2018-04-17T08:57:12.709Z,2711
2018-04-17T08:58:13.453Z,2756
2018-04-17T08:59:14.190Z,2716
2018-04-17T09:00:14.944Z,2705
2018-04-17T09:01:15.789Z,2739
2018-04-17T09:02:16.525Z,2694
2018-04-17T09:03:17.281Z,2570
2018-04-17T09:04:18.023Z,2598
2018-04-17T09:05:18.906Z,2778
2018-04-17T09:06:19.531Z,2716
2018-04-17T09:07:20.398Z,2773
2018-04-17T09:08:21.162Z,2767
2018-04-17T09:09:21.913Z,2790
2018-04-17T09:10:22.673Z,2761
2018-04-17T09:11:23.402Z,2767
2018-04-17T09:12:24.223Z,2761
2018-04-17T09:13:24.966Z,2722
2018-04-17T09:14:25.753Z,2739
2018-04-17T09:15:26.456Z,2806
2018-04-17T09:16:27.233Z,2868
2018-04-17T09:17:28.094Z,2941
2018-04-17T09:18:28.867Z,3003
2018-04-17T09:19:29.676Z,3003
2018-04-17T09:20:30.437Z,2981
2018-04-17T09:21:31.184Z,2975
2018-04-17T09:22:32.280Z,2975
2018-04-17T09:23:33.052Z,2953
2018-04-17T09:24:33.801Z,2925
2018-04-17T09:25:34.539Z,2947
2018-04-17T09:26:35.286Z,3009
2018-04-17T09:27:36.460Z,2885
2018-04-17T09:28:37.141Z,2925
2018-04-17T09:29:37.875Z,2868
2018-04-17T09:30:38.625Z,2908
2018-04-17T09:31:39.460Z,2998
2018-04-17T09:32:40.305Z,2992
2018-04-17T09:33:41.055Z,3060
2018-04-17T09:34:41.806Z,3127
2018-04-17T09:35:42.520Z,3088
2018-04-17T09:36:43.276Z,3054
2018-04-17T09:37:44.088Z,2992
2018-04-17T09:38:44.907Z,3026
2018-04-17T09:39:45.670Z,3037
2018-04-17T09:40:46.488Z,3161
2018-04-17T09:41:47.240Z,3054
2018-04-17T09:42:47.982Z,3099
2018-04-17T09:43:48.734Z,945
2018-04-17T09:44:49.490Z,3088
2018-04-17T09:45:50.333Z,3228
2018-04-17T09:46:51.095Z,3048
2018-04-17T09:47:51.843Z,2896
2018-04-17T09:48:52.644Z,2705
2018-04-17T09:49:53.406Z,2835
2018-04-17T09:50:54.153Z,3015
2018-04-17T09:51:54.906Z,3245
2018-04-17T09:52:55.714Z,3195
2018-04-17T09:53:56.814Z,3206
2018-04-17T09:54:57.556Z,3105
2018-04-17T09:55:58.383Z,3228
2018-04-17T09:56:59.137Z,3166
2018-04-17T09:57:59.888Z,2784
2018-04-17T09:59:00.749Z,2902
2018-04-17T10:00:01.586Z,2953
2018-04-17T10:01:02.346Z,2947
2018-04-17T10:02:03.109Z,2340
2018-04-17T10:03:03.865Z,1254
2018-04-17T10:04:04.607Z,3161
2018-04-17T10:05:05.404Z,3431
2018-04-17T10:06:06.179Z,3549
2018-04-17T10:07:06.922Z,3498
2018-04-17T10:08:07.683Z,3504
2018-04-17T10:09:08.567Z,3414
2018-04-17T10:10:09.284Z,3369
2018-04-17T10:11:10.036Z,3436
2018-04-17T10:12:10.768Z,3341
2018-04-17T10:13:11.553Z,3324
2018-04-17T10:14:12.301Z,3245
2018-04-17T10:15:13.048Z,2649
2018-04-17T10:16:14.199Z,3206
2018-04-17T10:17:14.974Z,3330
2018-04-17T10:18:15.751Z,3099
2018-04-17T10:19:16.490Z,3223
2018-04-17T10:20:17.246Z,1130
2018-04-17T10:21:18.082Z,1265
2018-04-17T10:22:18.832Z,3189
2018-04-17T10:23:19.573Z,1783
2018-04-17T10:24:20.320Z,2840
2018-04-17T10:25:21.049Z,2745
2018-04-17T10:26:21.819Z,2418
2018-04-17T10:27:23.129Z,2565
2018-04-17T10:28:23.887Z,2655
2018-04-17T10:29:24.682Z,2728
2018-04-17T10:30:25.445Z,2700
2018-04-17T10:31:26.179Z,2857
2018-04-17T10:32:26.930Z,2739
2018-04-17T10:33:28.105Z,2750
2018-04-17T10:34:28.860Z,2767
2018-04-17T10:35:29.629Z,2694
2018-04-17T10:36:30.403Z,2570
2018-04-17T10:37:32.099Z,2317
2018-04-17T10:38:32.856Z,2199
2018-04-17T10:39:33.680Z,2463
2018-04-17T10:40:34.554Z,2418
2018-04-17T10:41:35.304Z,2328
2018-04-17T10:42:36.111Z,2418
2018-04-17T10:43:36.860Z,2452
2018-04-17T10:44:37.655Z,2221
2018-04-17T10:45:38.474Z,2306
2018-04-17T10:46:39.264Z,2463
2018-04-17T10:47:40.007Z,2373
2018-04-17T10:48:40.760Z,2486
2018-04-17T10:49:41.594Z,2430
2018-04-17T10:50:42.355Z,2598
2018-04-17T10:51:43.112Z,2520
2018-04-17T10:52:43.865Z,2497
2018-04-17T10:53:44.664Z,2430
2018-04-17T10:54:45.442Z,2570
2018-04-17T10:55:46.284Z,2413
2018-04-17T10:56:47.125Z,2418
2018-04-17T10:57:47.968Z,2446
2018-04-17T10:58:48.718Z,2430
2018-04-17T10:59:49.572Z,2480
2018-04-17T11:00:50.527Z,2638
2018-04-17T11:01:51.333Z,2880
2018-04-17T11:02:52.083Z,2896
2018-04-17T11:03:52.827Z,3223
2018-04-17T11:04:53.614Z,3206
2018-04-17T11:05:54.393Z,3273
2018-04-17T11:06:55.162Z,3048
2018-04-17T11:07:55.920Z,2908
2018-04-17T11:08:56.693Z,2902
2018-04-17T11:09:57.522Z,2463
2018-04-17T11:10:58.366Z,2520
2018-04-17T11:11:59.123Z,3234
2018-04-17T11:12:59.873Z,3043
2018-04-17T11:14:00.621Z,3200
2018-04-17T11:15:01.373Z,3436
2018-04-17T11:16:02.226Z,3510
2018-04-17T11:17:03.064Z,3189
2018-04-17T11:18:03.824Z,2902
2018-04-17T11:19:04.595Z,2885
2018-04-17T11:20:05.372Z,2773
2018-04-17T11:21:06.113Z,3251
2018-04-17T11:22:06.870Z,3375
2018-04-17T11:23:07.676Z,3290
2018-04-17T11:24:09.209Z,3279
2018-04-17T11:25:10.140Z,3172
2018-04-17T11:26:11.088Z,3335
2018-04-17T11:27:11.820Z,3279
2018-04-17T11:28:12.571Z,3273
2018-04-17T11:29:13.612Z,3200
2018-04-17T11:30:14.443Z,3116
2018-04-17T11:31:15.251Z,3071
2018-04-17T11:32:16.057Z,3099
2018-04-17T11:33:16.888Z,2992
2018-04-17T11:34:17.711Z,3015
2018-04-17T11:35:18.461Z,2896
2018-04-17T11:36:19.230Z,2739
2018-04-17T11:37:20.066Z,2835
2018-04-17T11:38:20.953Z,2818
2018-04-17T11:39:21.693Z,2902
2018-04-17T11:40:22.470Z,3099
2018-04-17T11:41:23.245Z,3172
2018-04-17T11:42:24.202Z,3037
2018-04-17T11:43:24.952Z,2925
2018-04-17T11:44:25.682Z,2745
2018-04-17T11:45:26.523Z,3003
2018-04-17T11:46:27.343Z,2694
2018-04-17T11:47:28.507Z,2745
2018-04-17T11:48:29.245Z,2829
2018-04-17T11:49:30.003Z,2576
2018-04-17T11:50:30.821Z,2688
2018-04-17T11:51:31.573Z,2975
2018-04-17T11:52:32.382Z,2913
2018-04-17T11:53:33.131Z,2930
2018-04-17T11:54:33.879Z,2846
2018-04-17T11:55:34.627Z,2598
2018-04-17T11:56:35.374Z,2210
2018-04-17T11:57:36.149Z,2199
2018-04-17T11:58:36.922Z,2002
2018-04-17T11:59:37.653Z,1794
2018-04-17T12:00:38.835Z,1479
2018-04-17T12:01:39.651Z,1755
2018-04-17T12:02:40.407Z,1940
2018-04-17T12:03:41.209Z,2216
2018-04-17T12:04:41.966Z,2486
2018-04-17T12:05:43.197Z,2773
2018-04-17T12:06:44.042Z,2581
2018-04-17T12:07:44.790Z,2576
2018-04-17T12:08:45.533Z,2795
2018-04-17T12:09:46.264Z,2840
2018-04-17T12:10:47.124Z,2947
2018-04-17T12:11:47.891Z,2863
2018-04-17T12:12:48.641Z,2778
2018-04-17T12:13:49.380Z,2761
2018-04-17T12:14:50.135Z,2823
2018-04-17T12:15:50.982Z,2818
2018-04-17T12:16:51.749Z,2801
2018-04-17T12:17:52.497Z,2818
2018-04-17T12:18:53.256Z,2806
2018-04-17T12:19:54.005Z,2756
2018-04-17T12:20:55.113Z,2655
2018-04-17T12:21:55.861Z,2486
2018-04-17T12:22:56.694Z,2356
2018-04-17T12:23:57.443Z,2351
2018-04-17T12:24:58.192Z,2238
2018-04-17T12:25:59.022Z,2323
2018-04-17T12:26:59.766Z,2525
2018-04-17T12:28:00.511Z,2469
2018-04-17T12:29:01.279Z,2570
2018-04-17T12:30:02.064Z,2728
2018-04-17T12:31:02.810Z,2756
2018-04-17T12:32:03.640Z,2790
2018-04-17T12:33:04.374Z,2705
2018-04-17T12:34:05.211Z,2750
2018-04-17T12:35:05.965Z,2728
2018-04-17T12:36:06.800Z,2795
2018-04-17T12:37:07.557Z,2846
2018-04-17T12:38:08.305Z,2801
2018-04-17T12:39:09.442Z,2767
2018-04-17T12:40:10.210Z,2778
2018-04-17T12:41:10.952Z,2835
2018-04-17T12:42:11.707Z,2846
2018-04-17T12:43:12.466Z,2818
2018-04-17T12:44:13.211Z,2840
2018-04-17T12:45:14.089Z,2896
2018-04-17T12:46:14.910Z,2908
2018-04-17T12:47:15.670Z,2891
2018-04-17T12:48:16.405Z,2851
2018-04-17T12:49:17.146Z,2846
2018-04-17T12:50:17.900Z,2835
2018-04-17T12:51:18.713Z,2818
2018-04-17T12:52:19.464Z,2806
2018-04-17T12:53:20.227Z,2806
2018-04-17T12:54:20.981Z,2790
2018-04-17T12:55:21.744Z,2750
2018-04-17T12:56:22.574Z,2677
2018-04-17T12:57:23.315Z,2649
2018-04-17T12:58:24.115Z,2581
2018-04-17T12:59:24.924Z,2458
2018-04-17T13:00:25.673Z,2379
2018-04-17T13:01:26.519Z,2328
2018-04-17T13:02:27.288Z,2317
2018-04-17T13:03:28.106Z,2278
2018-04-17T13:04:28.831Z,2289
2018-04-17T13:05:29.645Z,2311
2018-04-17T13:06:30.420Z,2368
2018-04-17T13:07:31.266Z,2430
2018-04-17T13:08:32.024Z,2458
2018-04-17T13:09:32.763Z,2514
2018-04-17T13:10:33.510Z,2542
2018-04-17T13:11:34.273Z,2576
2018-04-17T13:12:35.442Z,2604
2018-04-17T13:13:36.236Z,2638
2018-04-17T13:14:36.978Z,2638
2018-04-17T13:15:37.746Z,2683
2018-04-17T13:16:38.497Z,2688
2018-04-17T13:17:39.310Z,2655
2018-04-17T13:18:40.044Z,2587
2018-04-17T13:19:40.793Z,2559
2018-04-17T13:20:41.561Z,2536
2018-04-17T13:21:42.313Z,2475
2018-04-17T13:22:43.066Z,2486
2018-04-17T13:23:43.864Z,2525
2018-04-17T13:24:44.640Z,2570
2018-04-17T13:25:45.517Z,2581
2018-04-17T13:26:46.239Z,2576
2018-04-17T13:27:47.442Z,2598
2018-04-17T13:28:48.144Z,2610
2018-04-17T13:29:49.272Z,2632
2018-04-17T13:30:50.052Z,2632
2018-04-17T13:31:50.811Z,2615
2018-04-17T13:32:51.575Z,2604
2018-04-17T13:33:52.372Z,2638
2018-04-17T13:34:53.133Z,2480
2018-04-17T13:35:53.882Z,2525
2018-04-17T13:36:54.627Z,2553
2018-04-17T13:37:55.370Z,2553
2018-04-17T13:38:56.165Z,2587
2018-04-17T13:39:56.931Z,2655
2018-04-17T13:40:57.737Z,2649
2018-04-17T13:41:58.500Z,2677
2018-04-17T13:42:59.324Z,2570
2018-04-17T13:44:00.872Z,2289
2018-04-17T13:45:02.552Z,2475
2018-04-17T13:46:04.444Z,2446
2018-04-17T13:47:05.145Z,2390
2018-04-17T13:48:05.906Z,2221
2018-04-17T13:49:06.707Z,2210
2018-04-17T13:50:07.496Z,2086
2018-04-17T13:51:08.314Z,2075
2018-04-17T13:52:09.065Z,1968
2018-04-17T13:53:09.848Z,1890
2018-04-17T13:54:11.195Z,2041
2018-04-17T13:55:13.262Z,2131
2018-04-17T13:56:14.186Z,2019
2018-04-17T13:57:15.863Z,2205
2018-04-17T13:58:17.164Z,2475
2018-04-17T13:59:18.192Z,2362
2018-04-17T14:00:18.923Z,2261
2018-04-17T14:01:19.682Z,2193
2018-04-17T14:02:20.440Z,2334
2018-04-17T14:03:21.191Z,2413